sensor_id;sensor_type;location;lat;lon;timestamp;P1;durP1;ratioP1;P2;durP2;ratioP2
28682;SDS011;15862;43.062;25.626;2022-07-01T00:00:57;7.38;;;4.35;;
28682;SDS011;15862;43.062;25.626;2022-07-01T00:03:22;7.85;;;4.25;;
28682;SDS011;15862;43.062;25.626;2022-07-01T00:05:47;4.85;;;4.30;;
28682;SDS011;15862;43.062;25.626;2022-07-01T00:08:13;6.78;;;4.20;;
28682;SDS011;15862;43.062;25.626;2022-07-01T00:10:38;6.40;;;3.60;;
28682;SDS011;15862;43.062;25.626;2022-07-01T00:13:04;21.40;;;6.22;;
28682;SDS011;15862;43.062;25.626;2022-07-01T00:15:31;5.38;;;4.03;;
28682;SDS011;15862;43.062;25.626;2022-07-01T00:17:57;8.77;;;3.85;;
28682;SDS011;15862;43.062;25.626;2022-07-01T00:20:22;10.63;;;4.35;;
28682;SDS011;15862;43.062;25.626;2022-07-01T00:22:48;6.78;;;3.72;;
28682;SDS011;15862;43.062;25.626;2022-07-01T00:25:13;12.63;;;5.35;;
28682;SDS011;15862;43.062;25.626;2022-07-01T00:27:39;4.00;;;3.60;;
28682;SDS011;15862;43.062;25.626;2022-07-01T00:30:06;6.63;;;4.55;;
28682;SDS011;15862;43.062;25.626;2022-07-01T00:32:35;5.18;;;3.65;;
28682;SDS011;15862;43.062;25.626;2022-07-01T00:35:01;5.50;;;4.88;;
28682;SDS011;15862;43.062;25.626;2022-07-01T00:37:27;7.18;;;4.55;;
28682;SDS011;15862;43.062;25.626;2022-07-01T00:39:52;4.75;;;4.03;;
28682;SDS011;15862;43.062;25.626;2022-07-01T00:42:18;6.90;;;4.38;;
28682;SDS011;15862;43.062;25.626;2022-07-01T00:44:43;4.80;;;3.65;;
28682;SDS011;15862;43.062;25.626;2022-07-01T00:47:10;6.70;;;3.90;;
28682;SDS011;15862;43.062;25.626;2022-07-01T00:49:38;4.75;;;4.25;;
28682;SDS011;15862;43.062;25.626;2022-07-01T00:52:05;9.52;;;3.97;;
28682;SDS011;15862;43.062;25.626;2022-07-01T00:54:32;5.28;;;3.85;;
28682;SDS011;15862;43.062;25.626;2022-07-01T00:57:05;7.50;;;4.30;;
28682;SDS011;15862;43.062;25.626;2022-07-01T00:59:32;6.32;;;4.30;;
28682;SDS011;15862;43.062;25.626;2022-07-01T01:01:59;4.25;;;3.85;;
28682;SDS011;15862;43.062;25.626;2022-07-01T01:04:25;5.85;;;4.07;;
28682;SDS011;15862;43.062;25.626;2022-07-01T01:06:50;6.20;;;3.90;;
28682;SDS011;15862;43.062;25.626;2022-07-01T01:09:16;4.95;;;4.45;;
28682;SDS011;15862;43.062;25.626;2022-07-01T01:11:41;6.78;;;4.10;;
28682;SDS011;15862;43.062;25.626;2022-07-01T01:14:07;6.35;;;4.10;;
28682;SDS011;15862;43.062;25.626;2022-07-01T01:16:32;5.80;;;3.50;;
28682;SDS011;15862;43.062;25.626;2022-07-01T01:19:02;5.82;;;4.30;;
28682;SDS011;15862;43.062;25.626;2022-07-01T01:21:29;8.43;;;4.18;;
28682;SDS011;15862;43.062;25.626;2022-07-01T01:23:55;5.95;;;4.25;;
28682;SDS011;15862;43.062;25.626;2022-07-01T01:26:22;5.60;;;4.35;;
28682;SDS011;15862;43.062;25.626;2022-07-01T01:28:49;9.07;;;4.45;;
28682;SDS011;15862;43.062;25.626;2022-07-01T01:31:15;8.50;;;4.38;;
28682;SDS011;15862;43.062;25.626;2022-07-01T01:33:41;9.05;;;3.78;;
28682;SDS011;15862;43.062;25.626;2022-07-01T01:36:07;6.15;;;4.60;;
28682;SDS011;15862;43.062;25.626;2022-07-01T01:38:34;7.00;;;4.43;;
28682;SDS011;15862;43.062;25.626;2022-07-01T01:41:00;7.35;;;4.32;;
28682;SDS011;15862;43.062;25.626;2022-07-01T01:43:26;5.32;;;4.05;;
28682;SDS011;15862;43.062;25.626;2022-07-01T01:45:51;6.38;;;4.10;;
28682;SDS011;15862;43.062;25.626;2022-07-01T01:48:17;6.43;;;4.82;;
28682;SDS011;15862;43.062;25.626;2022-07-01T01:50:42;9.68;;;4.30;;
28682;SDS011;15862;43.062;25.626;2022-07-01T01:53:08;6.72;;;4.82;;
28682;SDS011;15862;43.062;25.626;2022-07-01T01:55:33;7.53;;;5.30;;
28682;SDS011;15862;43.062;25.626;2022-07-01T01:57:59;9.10;;;4.70;;
28682;SDS011;15862;43.062;25.626;2022-07-01T02:00:24;7.95;;;4.43;;
28682;SDS011;15862;43.062;25.626;2022-07-01T02:02:50;7.47;;;4.63;;
28682;SDS011;15862;43.062;25.626;2022-07-01T02:05:15;9.90;;;5.30;;
28682;SDS011;15862;43.062;25.626;2022-07-01T02:07:41;6.22;;;4.50;;
28682;SDS011;15862;43.062;25.626;2022-07-01T02:10:07;8.23;;;4.10;;
28682;SDS011;15862;43.062;25.626;2022-07-01T02:12:32;7.13;;;4.50;;
28682;SDS011;15862;43.062;25.626;2022-07-01T02:14:58;4.88;;;4.40;;
28682;SDS011;15862;43.062;25.626;2022-07-01T02:17:23;4.72;;;4.05;;
28682;SDS011;15862;43.062;25.626;2022-07-01T02:19:51;6.38;;;4.68;;
28682;SDS011;15862;43.062;25.626;2022-07-01T02:22:16;6.63;;;4.78;;
28682;SDS011;15862;43.062;25.626;2022-07-01T02:24:41;8.90;;;5.22;;
28682;SDS011;15862;43.062;25.626;2022-07-01T02:27:08;8.52;;;5.10;;
28682;SDS011;15862;43.062;25.626;2022-07-01T02:29:34;7.80;;;5.20;;
28682;SDS011;15862;43.062;25.626;2022-07-01T02:31:59;10.35;;;5.75;;
28682;SDS011;15862;43.062;25.626;2022-07-01T02:34:25;7.80;;;5.47;;
28682;SDS011;15862;43.062;25.626;2022-07-01T02:36:50;5.20;;;4.30;;
28682;SDS011;15862;43.062;25.626;2022-07-01T02:39:20;9.10;;;4.82;;
28682;SDS011;15862;43.062;25.626;2022-07-01T02:41:45;11.90;;;4.68;;
28682;SDS011;15862;43.062;25.626;2022-07-01T02:44:30;8.43;;;4.63;;
28682;SDS011;15862;43.062;25.626;2022-07-01T02:46:55;9.30;;;5.85;;
28682;SDS011;15862;43.062;25.626;2022-07-01T02:49:21;6.50;;;5.05;;
28682;SDS011;15862;43.062;25.626;2022-07-01T02:51:47;5.25;;;4.57;;
28682;SDS011;15862;43.062;25.626;2022-07-01T02:54:12;7.78;;;5.05;;
28682;SDS011;15862;43.062;25.626;2022-07-01T02:56:38;11.15;;;4.80;;
28682;SDS011;15862;43.062;25.626;2022-07-01T02:59:03;8.45;;;5.15;;
28682;SDS011;15862;43.062;25.626;2022-07-01T03:01:28;13.02;;;5.43;;
28682;SDS011;15862;43.062;25.626;2022-07-01T03:03:54;8.07;;;4.93;;
28682;SDS011;15862;43.062;25.626;2022-07-01T03:06:19;9.70;;;5.47;;
28682;SDS011;15862;43.062;25.626;2022-07-01T03:08:45;12.10;;;5.20;;
28682;SDS011;15862;43.062;25.626;2022-07-01T03:11:10;11.30;;;5.65;;
28682;SDS011;15862;43.062;25.626;2022-07-01T03:13:35;5.03;;;4.35;;
28682;SDS011;15862;43.062;25.626;2022-07-01T03:16:01;7.35;;;5.03;;
28682;SDS011;15862;43.062;25.626;2022-07-01T03:18:26;12.23;;;5.30;;
28682;SDS011;15862;43.062;25.626;2022-07-01T03:20:52;11.60;;;5.85;;
28682;SDS011;15862;43.062;25.626;2022-07-01T03:23:17;11.70;;;5.50;;
28682;SDS011;15862;43.062;25.626;2022-07-01T03:25:43;14.10;;;6.20;;
28682;SDS011;15862;43.062;25.626;2022-07-01T03:28:08;18.73;;;6.18;;
28682;SDS011;15862;43.062;25.626;2022-07-01T03:30:34;8.20;;;5.88;;
28682;SDS011;15862;43.062;25.626;2022-07-01T03:32:59;11.38;;;5.30;;
28682;SDS011;15862;43.062;25.626;2022-07-01T03:35:25;13.98;;;5.13;;
28682;SDS011;15862;43.062;25.626;2022-07-01T03:38:04;9.43;;;5.55;;
28682;SDS011;15862;43.062;25.626;2022-07-01T03:40:31;17.80;;;6.20;;
28682;SDS011;15862;43.062;25.626;2022-07-01T03:42:57;26.55;;;6.53;;
28682;SDS011;15862;43.062;25.626;2022-07-01T03:45:22;13.18;;;6.65;;
28682;SDS011;15862;43.062;25.626;2022-07-01T03:47:48;11.15;;;5.55;;
28682;SDS011;15862;43.062;25.626;2022-07-01T03:50:15;6.35;;;5.60;;
28682;SDS011;15862;43.062;25.626;2022-07-01T03:52:41;10.27;;;5.68;;
28682;SDS011;15862;43.062;25.626;2022-07-01T03:55:08;8.80;;;6.03;;
28682;SDS011;15862;43.062;25.626;2022-07-01T03:57:34;9.77;;;5.22;;
28682;SDS011;15862;43.062;25.626;2022-07-01T03:59:59;12.82;;;6.10;;
28682;SDS011;15862;43.062;25.626;2022-07-01T04:02:25;12.90;;;5.78;;
28682;SDS011;15862;43.062;25.626;2022-07-01T04:04:51;8.20;;;6.18;;
28682;SDS011;15862;43.062;25.626;2022-07-01T04:07:16;14.93;;;6.65;;
28682;SDS011;15862;43.062;25.626;2022-07-01T04:09:41;18.98;;;8.85;;
28682;SDS011;15862;43.062;25.626;2022-07-01T04:12:08;17.90;;;7.07;;
28682;SDS011;15862;43.062;25.626;2022-07-01T04:14:35;13.23;;;6.63;;
28682;SDS011;15862;43.062;25.626;2022-07-01T04:17:01;11.30;;;7.05;;
28682;SDS011;15862;43.062;25.626;2022-07-01T04:19:27;12.82;;;7.20;;
28682;SDS011;15862;43.062;25.626;2022-07-01T04:21:53;19.58;;;8.70;;
28682;SDS011;15862;43.062;25.626;2022-07-01T04:24:37;13.45;;;9.13;;
28682;SDS011;15862;43.062;25.626;2022-07-01T04:27:02;34.03;;;10.35;;
28682;SDS011;15862;43.062;25.626;2022-07-01T04:29:28;25.35;;;10.50;;
28682;SDS011;15862;43.062;25.626;2022-07-01T04:31:57;22.83;;;9.82;;
28682;SDS011;15862;43.062;25.626;2022-07-01T04:34:24;31.27;;;11.68;;
28682;SDS011;15862;43.062;25.626;2022-07-01T04:36:49;39.85;;;11.23;;
28682;SDS011;15862;43.062;25.626;2022-07-01T04:39:15;35.45;;;12.35;;
28682;SDS011;15862;43.062;25.626;2022-07-01T04:41:41;30.50;;;13.15;;
28682;SDS011;15862;43.062;25.626;2022-07-01T04:44:25;21.13;;;8.32;;
28682;SDS011;15862;43.062;25.626;2022-07-01T04:46:52;22.90;;;12.35;;
28682;SDS011;15862;43.062;25.626;2022-07-01T04:49:17;21.98;;;10.57;;
28682;SDS011;15862;43.062;25.626;2022-07-01T04:51:43;23.88;;;10.85;;
28682;SDS011;15862;43.062;25.626;2022-07-01T04:54:08;15.38;;;7.25;;
28682;SDS011;15862;43.062;25.626;2022-07-01T04:56:34;16.15;;;7.00;;
28682;SDS011;15862;43.062;25.626;2022-07-01T04:59:01;14.18;;;7.20;;
28682;SDS011;15862;43.062;25.626;2022-07-01T05:01:26;12.05;;;6.82;;
28682;SDS011;15862;43.062;25.626;2022-07-01T05:03:53;10.35;;;6.35;;
28682;SDS011;15862;43.062;25.626;2022-07-01T05:06:19;10.38;;;6.78;;
28682;SDS011;15862;43.062;25.626;2022-07-01T05:08:44;17.10;;;8.30;;
28682;SDS011;15862;43.062;25.626;2022-07-01T05:11:10;12.07;;;6.78;;
28682;SDS011;15862;43.062;25.626;2022-07-01T05:13:35;11.18;;;5.60;;
28682;SDS011;15862;43.062;25.626;2022-07-01T05:16:01;14.15;;;6.05;;
28682;SDS011;15862;43.062;25.626;2022-07-01T05:18:28;10.07;;;4.65;;
28682;SDS011;15862;43.062;25.626;2022-07-01T05:21:12;5.32;;;4.03;;
28682;SDS011;15862;43.062;25.626;2022-07-01T05:26:21;7.80;;;3.42;;
28682;SDS011;15862;43.062;25.626;2022-07-01T05:28:47;5.13;;;3.65;;
28682;SDS011;15862;43.062;25.626;2022-07-01T05:31:13;9.05;;;4.10;;
28682;SDS011;15862;43.062;25.626;2022-07-01T05:33:38;10.18;;;4.47;;
28682;SDS011;15862;43.062;25.626;2022-07-01T05:36:04;12.50;;;4.00;;
28682;SDS011;15862;43.062;25.626;2022-07-01T05:38:30;7.28;;;4.72;;
28682;SDS011;15862;43.062;25.626;2022-07-01T05:40:55;7.30;;;3.92;;
28682;SDS011;15862;43.062;25.626;2022-07-01T05:43:21;30.90;;;6.13;;
28682;SDS011;15862;43.062;25.626;2022-07-01T05:45:47;12.55;;;4.15;;
28682;SDS011;15862;43.062;25.626;2022-07-01T05:48:12;9.20;;;3.83;;
28682;SDS011;15862;43.062;25.626;2022-07-01T05:50:39;5.65;;;4.22;;
28682;SDS011;15862;43.062;25.626;2022-07-01T05:53:05;13.07;;;4.18;;
28682;SDS011;15862;43.062;25.626;2022-07-01T05:55:30;10.63;;;4.30;;
28682;SDS011;15862;43.062;25.626;2022-07-01T05:57:56;15.05;;;4.63;;
28682;SDS011;15862;43.062;25.626;2022-07-01T06:00:21;14.32;;;4.10;;
28682;SDS011;15862;43.062;25.626;2022-07-01T06:02:47;14.48;;;3.78;;
28682;SDS011;15862;43.062;25.626;2022-07-01T06:05:12;4.72;;;3.38;;
28682;SDS011;15862;43.062;25.626;2022-07-01T06:07:39;6.50;;;2.72;;
28682;SDS011;15862;43.062;25.626;2022-07-01T06:10:06;5.88;;;2.83;;
28682;SDS011;15862;43.062;25.626;2022-07-01T06:12:32;7.70;;;2.67;;
28682;SDS011;15862;43.062;25.626;2022-07-01T06:14:59;4.13;;;2.50;;
28682;SDS011;15862;43.062;25.626;2022-07-01T06:17:24;6.53;;;2.40;;
28682;SDS011;15862;43.062;25.626;2022-07-01T06:19:49;8.48;;;2.72;;
28682;SDS011;15862;43.062;25.626;2022-07-01T06:22:15;11.57;;;3.08;;
28682;SDS011;15862;43.062;25.626;2022-07-01T06:24:43;9.05;;;2.72;;
28682;SDS011;15862;43.062;25.626;2022-07-01T06:27:10;6.57;;;2.90;;
28682;SDS011;15862;43.062;25.626;2022-07-01T06:29:36;6.38;;;2.53;;
28682;SDS011;15862;43.062;25.626;2022-07-01T06:32:02;6.15;;;2.53;;
28682;SDS011;15862;43.062;25.626;2022-07-01T06:34:28;11.52;;;3.35;;
28682;SDS011;15862;43.062;25.626;2022-07-01T06:36:53;12.27;;;3.33;;
28682;SDS011;15862;43.062;25.626;2022-07-01T06:39:20;13.05;;;2.92;;
28682;SDS011;15862;43.062;25.626;2022-07-01T06:41:46;9.80;;;3.15;;
28682;SDS011;15862;43.062;25.626;2022-07-01T06:44:11;6.60;;;3.50;;
28682;SDS011;15862;43.062;25.626;2022-07-01T06:46:37;3.95;;;2.60;;
28682;SDS011;15862;43.062;25.626;2022-07-01T06:49:03;5.75;;;3.38;;
28682;SDS011;15862;43.062;25.626;2022-07-01T06:51:29;8.02;;;3.53;;
28682;SDS011;15862;43.062;25.626;2022-07-01T06:53:54;15.00;;;3.42;;
28682;SDS011;15862;43.062;25.626;2022-07-01T06:56:20;4.50;;;2.63;;
28682;SDS011;15862;43.062;25.626;2022-07-01T06:58:45;6.80;;;3.38;;
28682;SDS011;15862;43.062;25.626;2022-07-01T07:01:11;5.28;;;2.90;;
28682;SDS011;15862;43.062;25.626;2022-07-01T07:03:37;6.25;;;2.97;;
28682;SDS011;15862;43.062;25.626;2022-07-01T07:06:03;10.00;;;3.47;;
28682;SDS011;15862;43.062;25.626;2022-07-01T07:08:30;9.52;;;3.53;;
28682;SDS011;15862;43.062;25.626;2022-07-01T07:10:56;12.10;;;3.75;;
28682;SDS011;15862;43.062;25.626;2022-07-01T07:13:22;11.15;;;3.70;;
28682;SDS011;15862;43.062;25.626;2022-07-01T07:15:47;18.45;;;7.53;;
28682;SDS011;15862;43.062;25.626;2022-07-01T07:18:13;18.13;;;7.28;;
28682;SDS011;15862;43.062;25.626;2022-07-01T07:20:38;27.85;;;7.60;;
28682;SDS011;15862;43.062;25.626;2022-07-01T07:23:04;17.33;;;7.63;;
28682;SDS011;15862;43.062;25.626;2022-07-01T07:25:29;15.45;;;8.07;;
28682;SDS011;15862;43.062;25.626;2022-07-01T07:27:55;16.35;;;6.10;;
28682;SDS011;15862;43.062;25.626;2022-07-01T07:30:21;18.55;;;5.80;;
28682;SDS011;15862;43.062;25.626;2022-07-01T07:32:46;17.85;;;7.00;;
28682;SDS011;15862;43.062;25.626;2022-07-01T07:35:12;13.38;;;5.57;;
28682;SDS011;15862;43.062;25.626;2022-07-01T07:37:38;16.70;;;6.05;;
28682;SDS011;15862;43.062;25.626;2022-07-01T07:40:04;26.27;;;6.22;;
28682;SDS011;15862;43.062;25.626;2022-07-01T07:42:35;10.13;;;6.47;;
28682;SDS011;15862;43.062;25.626;2022-07-01T07:45:02;10.10;;;5.30;;
28682;SDS011;15862;43.062;25.626;2022-07-01T07:47:28;15.68;;;4.32;;
28682;SDS011;15862;43.062;25.626;2022-07-01T07:49:54;13.52;;;4.60;;
28682;SDS011;15862;43.062;25.626;2022-07-01T07:52:20;7.95;;;4.63;;
28682;SDS011;15862;43.062;25.626;2022-07-01T07:54:45;6.70;;;4.03;;
28682;SDS011;15862;43.062;25.626;2022-07-01T07:57:11;13.20;;;4.72;;
28682;SDS011;15862;43.062;25.626;2022-07-01T07:59:37;11.90;;;5.82;;
28682;SDS011;15862;43.062;25.626;2022-07-01T08:02:02;8.38;;;4.05;;
28682;SDS011;15862;43.062;25.626;2022-07-01T08:04:28;7.30;;;3.05;;
28682;SDS011;15862;43.062;25.626;2022-07-01T08:06:54;8.13;;;4.05;;
28682;SDS011;15862;43.062;25.626;2022-07-01T08:09:19;10.32;;;5.50;;
28682;SDS011;15862;43.062;25.626;2022-07-01T08:11:45;18.15;;;6.93;;
28682;SDS011;15862;43.062;25.626;2022-07-01T08:14:10;8.48;;;6.30;;
28682;SDS011;15862;43.062;25.626;2022-07-01T08:16:36;10.38;;;6.68;;
28682;SDS011;15862;43.062;25.626;2022-07-01T08:19:02;10.82;;;5.68;;
28682;SDS011;15862;43.062;25.626;2022-07-01T08:21:28;8.73;;;6.43;;
28682;SDS011;15862;43.062;25.626;2022-07-01T08:23:54;9.02;;;4.25;;
28682;SDS011;15862;43.062;25.626;2022-07-01T08:26:19;7.63;;;3.63;;
28682;SDS011;15862;43.062;25.626;2022-07-01T08:28:45;8.30;;;3.28;;
28682;SDS011;15862;43.062;25.626;2022-07-01T08:31:10;8.30;;;3.72;;
28682;SDS011;15862;43.062;25.626;2022-07-01T08:33:36;6.00;;;3.30;;
28682;SDS011;15862;43.062;25.626;2022-07-01T08:36:05;6.45;;;3.55;;
28682;SDS011;15862;43.062;25.626;2022-07-01T08:38:31;5.88;;;3.35;;
28682;SDS011;15862;43.062;25.626;2022-07-01T08:40:57;5.63;;;3.15;;
28682;SDS011;15862;43.062;25.626;2022-07-01T08:43:23;3.28;;;2.97;;
28682;SDS011;15862;43.062;25.626;2022-07-01T08:45:49;24.52;;;7.55;;
28682;SDS011;15862;43.062;25.626;2022-07-01T08:48:16;4.50;;;2.80;;
28682;SDS011;15862;43.062;25.626;2022-07-01T08:50:42;7.05;;;3.33;;
28682;SDS011;15862;43.062;25.626;2022-07-01T08:53:08;4.60;;;3.20;;
28682;SDS011;15862;43.062;25.626;2022-07-01T08:55:35;5.70;;;2.67;;
28682;SDS011;15862;43.062;25.626;2022-07-01T08:58:21;6.70;;;2.80;;
28682;SDS011;15862;43.062;25.626;2022-07-01T09:00:47;15.35;;;3.95;;
28682;SDS011;15862;43.062;25.626;2022-07-01T09:03:13;12.80;;;5.35;;
28682;SDS011;15862;43.062;25.626;2022-07-01T09:05:38;18.50;;;4.05;;
28682;SDS011;15862;43.062;25.626;2022-07-01T09:08:14;14.73;;;3.40;;
28682;SDS011;15862;43.062;25.626;2022-07-01T09:10:40;11.00;;;3.50;;
28682;SDS011;15862;43.062;25.626;2022-07-01T09:13:08;10.13;;;3.70;;
28682;SDS011;15862;43.062;25.626;2022-07-01T09:15:36;7.28;;;3.78;;
28682;SDS011;15862;43.062;25.626;2022-07-01T09:18:04;11.00;;;4.85;;
28682;SDS011;15862;43.062;25.626;2022-07-01T09:20:35;10.02;;;5.60;;
28682;SDS011;15862;43.062;25.626;2022-07-01T09:25:34;14.98;;;4.80;;
28682;SDS011;15862;43.062;25.626;2022-07-01T09:30:50;4.32;;;3.58;;
28682;SDS011;15862;43.062;25.626;2022-07-01T09:33:19;8.90;;;4.75;;
28682;SDS011;15862;43.062;25.626;2022-07-01T09:35:46;6.22;;;3.95;;
28682;SDS011;15862;43.062;25.626;2022-07-01T09:38:14;15.70;;;4.18;;
28682;SDS011;15862;43.062;25.626;2022-07-01T09:40:54;6.32;;;3.10;;
28682;SDS011;15862;43.062;25.626;2022-07-01T09:45:57;2.92;;;2.72;;
28682;SDS011;15862;43.062;25.626;2022-07-01T09:51:02;3.90;;;3.35;;
28682;SDS011;15862;43.062;25.626;2022-07-01T09:53:30;7.80;;;3.55;;
28682;SDS011;15862;43.062;25.626;2022-07-01T09:55:56;6.70;;;3.67;;
28682;SDS011;15862;43.062;25.626;2022-07-01T09:58:22;7.25;;;3.92;;
28682;SDS011;15862;43.062;25.626;2022-07-01T10:00:48;8.93;;;4.30;;
28682;SDS011;15862;43.062;25.626;2022-07-01T10:03:14;10.68;;;3.55;;
28682;SDS011;15862;43.062;25.626;2022-07-01T10:05:45;6.82;;;4.47;;
28682;SDS011;15862;43.062;25.626;2022-07-01T10:14:00;7.00;;;2.67;;
28682;SDS011;15862;43.062;25.626;2022-07-01T10:16:28;4.20;;;2.72;;
28682;SDS011;15862;43.062;25.626;2022-07-01T10:18:57;7.78;;;3.03;;
28682;SDS011;15862;43.062;25.626;2022-07-01T10:21:26;5.60;;;2.70;;
28682;SDS011;15862;43.062;25.626;2022-07-01T10:23:52;5.85;;;3.00;;
28682;SDS011;15862;43.062;25.626;2022-07-01T10:26:35;5.00;;;2.80;;
28682;SDS011;15862;43.062;25.626;2022-07-01T10:29:02;4.30;;;2.80;;
28682;SDS011;15862;43.062;25.626;2022-07-01T10:31:37;9.20;;;3.72;;
28682;SDS011;15862;43.062;25.626;2022-07-01T10:34:03;4.70;;;2.47;;
28682;SDS011;15862;43.062;25.626;2022-07-01T10:41:35;3.33;;;2.50;;
28682;SDS011;15862;43.062;25.626;2022-07-01T10:46:40;3.88;;;2.90;;
28682;SDS011;15862;43.062;25.626;2022-07-01T10:52:02;16.48;;;3.30;;
28682;SDS011;15862;43.062;25.626;2022-07-01T10:59:46;3.70;;;2.90;;
28682;SDS011;15862;43.062;25.626;2022-07-01T11:02:24;4.65;;;2.60;;
28682;SDS011;15862;43.062;25.626;2022-07-01T11:04:54;3.83;;;2.80;;
28682;SDS011;15862;43.062;25.626;2022-07-01T11:07:26;8.88;;;2.67;;
28682;SDS011;15862;43.062;25.626;2022-07-01T11:09:52;4.22;;;2.90;;
28682;SDS011;15862;43.062;25.626;2022-07-01T11:12:19;6.00;;;3.20;;
28682;SDS011;15862;43.062;25.626;2022-07-01T11:14:47;5.63;;;2.85;;
28682;SDS011;15862;43.062;25.626;2022-07-01T11:17:13;5.28;;;2.53;;
28682;SDS011;15862;43.062;25.626;2022-07-01T11:19:38;13.85;;;3.10;;
28682;SDS011;15862;43.062;25.626;2022-07-01T11:22:04;6.07;;;2.50;;
28682;SDS011;15862;43.062;25.626;2022-07-01T11:24:30;4.40;;;2.65;;
28682;SDS011;15862;43.062;25.626;2022-07-01T11:27:14;3.47;;;2.78;;
28682;SDS011;15862;43.062;25.626;2022-07-01T11:29:40;4.47;;;3.17;;
28682;SDS011;15862;43.062;25.626;2022-07-01T11:32:05;6.80;;;2.83;;
28682;SDS011;15862;43.062;25.626;2022-07-01T11:34:31;3.15;;;2.90;;
28682;SDS011;15862;43.062;25.626;2022-07-01T11:36:57;4.18;;;2.50;;
28682;SDS011;15862;43.062;25.626;2022-07-01T11:39:41;4.60;;;2.30;;
28682;SDS011;15862;43.062;25.626;2022-07-01T11:42:09;4.85;;;2.47;;
28682;SDS011;15862;43.062;25.626;2022-07-01T11:44:41;3.92;;;2.58;;
28682;SDS011;15862;43.062;25.626;2022-07-01T11:47:09;11.15;;;3.17;;
28682;SDS011;15862;43.062;25.626;2022-07-01T11:49:43;6.53;;;3.30;;
28682;SDS011;15862;43.062;25.626;2022-07-01T11:52:12;4.43;;;3.40;;
28682;SDS011;15862;43.062;25.626;2022-07-01T11:54:38;4.93;;;2.75;;
28682;SDS011;15862;43.062;25.626;2022-07-01T11:57:12;4.07;;;2.80;;
28682;SDS011;15862;43.062;25.626;2022-07-01T11:59:43;2.97;;;2.78;;
28682;SDS011;15862;43.062;25.626;2022-07-01T12:02:10;4.00;;;2.55;;
28682;SDS011;15862;43.062;25.626;2022-07-01T12:04:39;3.55;;;2.50;;
28682;SDS011;15862;43.062;25.626;2022-07-01T12:07:05;2.83;;;2.63;;
28682;SDS011;15862;43.062;25.626;2022-07-01T12:09:32;3.45;;;2.67;;
28682;SDS011;15862;43.062;25.626;2022-07-01T12:11:58;3.63;;;2.38;;
28682;SDS011;15862;43.062;25.626;2022-07-01T12:14:25;4.63;;;2.67;;
28682;SDS011;15862;43.062;25.626;2022-07-01T12:17:00;5.60;;;2.63;;
28682;SDS011;15862;43.062;25.626;2022-07-01T12:22:05;4.85;;;3.10;;
28682;SDS011;15862;43.062;25.626;2022-07-01T12:24:33;9.63;;;3.30;;
28682;SDS011;15862;43.062;25.626;2022-07-01T12:29:24;5.30;;;3.40;;
28682;SDS011;15862;43.062;25.626;2022-07-01T12:32:01;5.22;;;2.80;;
28682;SDS011;15862;43.062;25.626;2022-07-01T12:34:41;5.82;;;2.85;;
28682;SDS011;15862;43.062;25.626;2022-07-01T12:37:11;6.55;;;3.30;;
28682;SDS011;15862;43.062;25.626;2022-07-01T12:44:59;3.45;;;2.42;;
28682;SDS011;15862;43.062;25.626;2022-07-01T12:47:28;4.45;;;3.08;;
28682;SDS011;15862;43.062;25.626;2022-07-01T12:52:38;8.53;;;3.63;;
28682;SDS011;15862;43.062;25.626;2022-07-01T12:55:13;8.65;;;3.92;;
28682;SDS011;15862;43.062;25.626;2022-07-01T12:57:40;4.50;;;3.25;;
28682;SDS011;15862;43.062;25.626;2022-07-01T13:00:06;11.15;;;4.18;;
28682;SDS011;15862;43.062;25.626;2022-07-01T13:02:32;7.03;;;3.00;;
28682;SDS011;15862;43.062;25.626;2022-07-01T13:04:58;4.95;;;3.15;;
28682;SDS011;15862;43.062;25.626;2022-07-01T13:07:23;5.28;;;2.75;;
28682;SDS011;15862;43.062;25.626;2022-07-01T13:09:49;6.85;;;2.95;;
28682;SDS011;15862;43.062;25.626;2022-07-01T13:12:14;8.82;;;3.30;;
28682;SDS011;15862;43.062;25.626;2022-07-01T13:14:40;4.00;;;3.13;;
28682;SDS011;15862;43.062;25.626;2022-07-01T13:17:05;7.32;;;3.88;;
28682;SDS011;15862;43.062;25.626;2022-07-01T13:19:31;15.60;;;5.10;;
28682;SDS011;15862;43.062;25.626;2022-07-01T13:21:59;11.40;;;4.40;;
28682;SDS011;15862;43.062;25.626;2022-07-01T13:24:26;12.60;;;3.70;;
28682;SDS011;15862;43.062;25.626;2022-07-01T13:26:51;5.40;;;3.60;;
28682;SDS011;15862;43.062;25.626;2022-07-01T13:29:17;3.42;;;2.80;;
28682;SDS011;15862;43.062;25.626;2022-07-01T13:31:42;9.35;;;3.42;;
28682;SDS011;15862;43.062;25.626;2022-07-01T13:34:08;6.93;;;3.63;;
28682;SDS011;15862;43.062;25.626;2022-07-01T13:36:33;3.47;;;3.15;;
28682;SDS011;15862;43.062;25.626;2022-07-01T13:38:58;7.57;;;3.72;;
28682;SDS011;15862;43.062;25.626;2022-07-01T13:41:24;5.80;;;2.78;;
28682;SDS011;15862;43.062;25.626;2022-07-01T13:43:49;3.65;;;3.30;;
28682;SDS011;15862;43.062;25.626;2022-07-01T13:46:15;6.75;;;3.88;;
28682;SDS011;15862;43.062;25.626;2022-07-01T13:48:41;3.50;;;3.20;;
28682;SDS011;15862;43.062;25.626;2022-07-01T13:51:07;6.82;;;3.70;;
28682;SDS011;15862;43.062;25.626;2022-07-01T13:53:32;3.72;;;3.40;;
28682;SDS011;15862;43.062;25.626;2022-07-01T13:55:58;4.95;;;3.53;;
28682;SDS011;15862;43.062;25.626;2022-07-01T13:58:23;9.80;;;3.55;;
28682;SDS011;15862;43.062;25.626;2022-07-01T14:00:48;3.35;;;3.05;;
28682;SDS011;15862;43.062;25.626;2022-07-01T14:03:14;6.35;;;3.63;;
28682;SDS011;15862;43.062;25.626;2022-07-01T14:05:39;4.43;;;3.60;;
28682;SDS011;15862;43.062;25.626;2022-07-01T14:08:05;7.00;;;3.92;;
28682;SDS011;15862;43.062;25.626;2022-07-01T14:10:31;5.53;;;3.78;;
28682;SDS011;15862;43.062;25.626;2022-07-01T14:12:59;8.18;;;4.00;;
28682;SDS011;15862;43.062;25.626;2022-07-01T14:15:25;5.18;;;3.50;;
28682;SDS011;15862;43.062;25.626;2022-07-01T14:17:50;6.85;;;4.30;;
28682;SDS011;15862;43.062;25.626;2022-07-01T14:20:16;8.73;;;3.85;;
28682;SDS011;15862;43.062;25.626;2022-07-01T14:26:03;4.00;;;3.70;;
28682;SDS011;15862;43.062;25.626;2022-07-01T14:28:28;5.18;;;3.88;;
28682;SDS011;15862;43.062;25.626;2022-07-01T14:30:54;6.88;;;3.20;;
28682;SDS011;15862;43.062;25.626;2022-07-01T14:33:20;6.55;;;3.47;;
28682;SDS011;15862;43.062;25.626;2022-07-01T14:35:46;44.20;;;5.85;;
28682;SDS011;15862;43.062;25.626;2022-07-01T14:38:11;18.77;;;3.78;;
28682;SDS011;15862;43.062;25.626;2022-07-01T14:40:39;9.00;;;3.50;;
28682;SDS011;15862;43.062;25.626;2022-07-01T14:43:04;12.40;;;3.50;;
28682;SDS011;15862;43.062;25.626;2022-07-01T14:45:31;11.18;;;3.70;;
28682;SDS011;15862;43.062;25.626;2022-07-01T14:47:57;25.17;;;5.38;;
28682;SDS011;15862;43.062;25.626;2022-07-01T14:50:22;13.68;;;3.83;;
28682;SDS011;15862;43.062;25.626;2022-07-01T14:52:48;5.90;;;3.72;;
28682;SDS011;15862;43.062;25.626;2022-07-01T14:55:14;4.32;;;3.40;;
28682;SDS011;15862;43.062;25.626;2022-07-01T14:57:39;6.90;;;4.30;;
28682;SDS011;15862;43.062;25.626;2022-07-01T15:00:05;5.68;;;3.15;;
28682;SDS011;15862;43.062;25.626;2022-07-01T15:02:33;7.85;;;3.58;;
28682;SDS011;15862;43.062;25.626;2022-07-01T15:04:59;9.93;;;4.03;;
28682;SDS011;15862;43.062;25.626;2022-07-01T15:07:24;3.88;;;3.45;;
28682;SDS011;15862;43.062;25.626;2022-07-01T15:09:50;4.32;;;3.92;;
28682;SDS011;15862;43.062;25.626;2022-07-01T15:12:16;5.65;;;3.80;;
28682;SDS011;15862;43.062;25.626;2022-07-01T15:14:43;5.55;;;3.70;;
28682;SDS011;15862;43.062;25.626;2022-07-01T15:17:09;9.70;;;4.00;;
28682;SDS011;15862;43.062;25.626;2022-07-01T15:19:35;5.55;;;4.05;;